sensor_id;sensor_type;location;lat;lon;timestamp;P1;durP1;ratioP1;P2;durP2;ratioP2
35578;SDS011;21687;48.900;9.188;2024-02-14T00:01:41;14.00;;;8.83;;
35578;SDS011;21687;48.900;9.188;2024-02-14T00:04:08;15.43;;;8.20;;
35578;SDS011;21687;48.900;9.188;2024-02-14T00:06:35;13.90;;;8.20;;
35578;SDS011;21687;48.900;9.188;2024-02-14T00:09:02;16.27;;;8.53;;
35578;SDS011;21687;48.900;9.188;2024-02-14T00:11:28;13.07;;;8.60;;
35578;SDS011;21687;48.900;9.188;2024-02-14T00:13:54;12.43;;;8.17;;
35578;SDS011;21687;48.900;9.188;2024-02-14T00:16:21;14.53;;;8.70;;
35578;SDS011;21687;48.900;9.188;2024-02-14T00:18:47;13.43;;;8.40;;
35578;SDS011;21687;48.900;9.188;2024-02-14T00:21:14;15.13;;;8.27;;
35578;SDS011;21687;48.900;9.188;2024-02-14T00:23:40;12.97;;;8.63;;
35578;SDS011;21687;48.900;9.188;2024-02-14T00:26:06;12.27;;;8.90;;
35578;SDS011;21687;48.900;9.188;2024-02-14T00:28:32;15.27;;;8.40;;
35578;SDS011;21687;48.900;9.188;2024-02-14T00:30:58;13.70;;;8.10;;
35578;SDS011;21687;48.900;9.188;2024-02-14T00:33:25;14.10;;;7.57;;
35578;SDS011;21687;48.900;9.188;2024-02-14T00:35:51;13.17;;;7.47;;
35578;SDS011;21687;48.900;9.188;2024-02-14T00:38:17;10.30;;;7.50;;
35578;SDS011;21687;48.900;9.188;2024-02-14T00:40:43;13.33;;;7.57;;
35578;SDS011;21687;48.900;9.188;2024-02-14T00:43:09;11.20;;;7.53;;
35578;SDS011;21687;48.900;9.188;2024-02-14T00:45:36;11.33;;;7.20;;
35578;SDS011;21687;48.900;9.188;2024-02-14T00:48:03;12.50;;;7.40;;
35578;SDS011;21687;48.900;9.188;2024-02-14T00:50:29;12.60;;;7.53;;
35578;SDS011;21687;48.900;9.188;2024-02-14T00:52:55;13.53;;;7.37;;
35578;SDS011;21687;48.900;9.188;2024-02-14T00:55:22;14.40;;;7.50;;
35578;SDS011;21687;48.900;9.188;2024-02-14T00:57:48;14.67;;;7.67;;
35578;SDS011;21687;48.900;9.188;2024-02-14T01:00:14;11.20;;;6.57;;
35578;SDS011;21687;48.900;9.188;2024-02-14T01:02:42;10.50;;;7.10;;
35578;SDS011;21687;48.900;9.188;2024-02-14T01:05:08;11.20;;;7.03;;
35578;SDS011;21687;48.900;9.188;2024-02-14T01:07:35;11.23;;;7.50;;
35578;SDS011;21687;48.900;9.188;2024-02-14T01:10:01;13.73;;;7.23;;
35578;SDS011;21687;48.900;9.188;2024-02-14T01:12:28;10.70;;;7.37;;
35578;SDS011;21687;48.900;9.188;2024-02-14T01:14:54;11.30;;;6.83;;
35578;SDS011;21687;48.900;9.188;2024-02-14T01:17:20;10.23;;;6.50;;
35578;SDS011;21687;48.900;9.188;2024-02-14T01:19:47;11.23;;;6.50;;
35578;SDS011;21687;48.900;9.188;2024-02-14T01:22:13;10.97;;;7.17;;
35578;SDS011;21687;48.900;9.188;2024-02-14T01:24:41;9.27;;;5.77;;
35578;SDS011;21687;48.900;9.188;2024-02-14T01:27:08;8.13;;;5.97;;
35578;SDS011;21687;48.900;9.188;2024-02-14T01:29:34;9.60;;;5.90;;
35578;SDS011;21687;48.900;9.188;2024-02-14T01:32:00;9.27;;;6.10;;
35578;SDS011;21687;48.900;9.188;2024-02-14T01:34:27;10.50;;;6.83;;
35578;SDS011;21687;48.900;9.188;2024-02-14T01:36:56;8.93;;;6.40;;
35578;SDS011;21687;48.900;9.188;2024-02-14T01:39:22;13.07;;;6.70;;
35578;SDS011;21687;48.900;9.188;2024-02-14T01:41:48;9.50;;;6.30;;
35578;SDS011;21687;48.900;9.188;2024-02-14T01:44:15;9.87;;;6.60;;
35578;SDS011;21687;48.900;9.188;2024-02-14T01:46:42;7.93;;;6.40;;
35578;SDS011;21687;48.900;9.188;2024-02-14T01:49:09;10.00;;;6.30;;
35578;SDS011;21687;48.900;9.188;2024-02-14T01:51:39;8.43;;;5.90;;
35578;SDS011;21687;48.900;9.188;2024-02-14T01:54:09;9.57;;;6.30;;
35578;SDS011;21687;48.900;9.188;2024-02-14T01:56:37;8.07;;;6.03;;
35578;SDS011;21687;48.900;9.188;2024-02-14T01:59:04;8.83;;;6.00;;
35578;SDS011;21687;48.900;9.188;2024-02-14T02:01:32;14.73;;;6.97;;
35578;SDS011;21687;48.900;9.188;2024-02-14T02:03:58;10.10;;;6.03;;
35578;SDS011;21687;48.900;9.188;2024-02-14T02:06:25;9.03;;;6.13;;
35578;SDS011;21687;48.900;9.188;2024-02-14T02:08:52;10.87;;;6.13;;
35578;SDS011;21687;48.900;9.188;2024-02-14T02:11:18;9.63;;;6.07;;
35578;SDS011;21687;48.900;9.188;2024-02-14T02:13:45;10.17;;;6.53;;
35578;SDS011;21687;48.900;9.188;2024-02-14T02:16:11;11.60;;;6.50;;
35578;SDS011;21687;48.900;9.188;2024-02-14T02:18:37;9.43;;;6.23;;
35578;SDS011;21687;48.900;9.188;2024-02-14T02:21:04;9.80;;;6.50;;
35578;SDS011;21687;48.900;9.188;2024-02-14T02:23:32;9.60;;;6.10;;
35578;SDS011;21687;48.900;9.188;2024-02-14T02:26:01;8.20;;;5.80;;
35578;SDS011;21687;48.900;9.188;2024-02-14T02:28:27;10.07;;;5.90;;
35578;SDS011;21687;48.900;9.188;2024-02-14T02:30:54;9.83;;;6.40;;
35578;SDS011;21687;48.900;9.188;2024-02-14T02:33:20;7.97;;;5.97;;
35578;SDS011;21687;48.900;9.188;2024-02-14T02:35:47;9.43;;;6.03;;
35578;SDS011;21687;48.900;9.188;2024-02-14T02:38:15;11.20;;;6.57;;
35578;SDS011;21687;48.900;9.188;2024-02-14T02:40:42;9.07;;;6.47;;
35578;SDS011;21687;48.900;9.188;2024-02-14T02:43:08;7.03;;;5.73;;
35578;SDS011;21687;48.900;9.188;2024-02-14T02:45:35;10.20;;;5.47;;
35578;SDS011;21687;48.900;9.188;2024-02-14T02:48:01;9.00;;;5.27;;
35578;SDS011;21687;48.900;9.188;2024-02-14T02:50:28;6.53;;;4.97;;
35578;SDS011;21687;48.900;9.188;2024-02-14T02:52:55;10.73;;;5.07;;
35578;SDS011;21687;48.900;9.188;2024-02-14T02:55:22;8.77;;;4.60;;
35578;SDS011;21687;48.900;9.188;2024-02-14T02:57:48;6.67;;;5.20;;
35578;SDS011;21687;48.900;9.188;2024-02-14T03:00:14;9.30;;;4.73;;
35578;SDS011;21687;48.900;9.188;2024-02-14T03:02:41;7.33;;;4.40;;
35578;SDS011;21687;48.900;9.188;2024-02-14T03:05:09;8.57;;;4.17;;
35578;SDS011;21687;48.900;9.188;2024-02-14T03:07:42;7.10;;;4.53;;
35578;SDS011;21687;48.900;9.188;2024-02-14T03:10:10;7.07;;;3.83;;
35578;SDS011;21687;48.900;9.188;2024-02-14T03:12:38;8.23;;;4.57;;
35578;SDS011;21687;48.900;9.188;2024-02-14T03:15:05;9.07;;;4.40;;
35578;SDS011;21687;48.900;9.188;2024-02-14T03:17:35;9.77;;;4.83;;
35578;SDS011;21687;48.900;9.188;2024-02-14T03:20:02;7.17;;;4.63;;
35578;SDS011;21687;48.900;9.188;2024-02-14T03:22:32;8.50;;;4.27;;
35578;SDS011;21687;48.900;9.188;2024-02-14T03:24:58;11.07;;;4.70;;
35578;SDS011;21687;48.900;9.188;2024-02-14T03:27:24;7.13;;;5.07;;
35578;SDS011;21687;48.900;9.188;2024-02-14T03:29:52;9.13;;;5.13;;
35578;SDS011;21687;48.900;9.188;2024-02-14T03:32:20;7.83;;;4.70;;
35578;SDS011;21687;48.900;9.188;2024-02-14T03:34:48;9.90;;;4.77;;
35578;SDS011;21687;48.900;9.188;2024-02-14T03:37:14;6.03;;;4.60;;
35578;SDS011;21687;48.900;9.188;2024-02-14T03:39:40;7.73;;;5.00;;
35578;SDS011;21687;48.900;9.188;2024-02-14T03:42:06;10.00;;;5.07;;
35578;SDS011;21687;48.900;9.188;2024-02-14T03:44:33;9.17;;;5.27;;
35578;SDS011;21687;48.900;9.188;2024-02-14T03:46:59;8.37;;;5.20;;
35578;SDS011;21687;48.900;9.188;2024-02-14T03:49:25;9.40;;;5.47;;
35578;SDS011;21687;48.900;9.188;2024-02-14T03:51:52;6.97;;;5.00;;
35578;SDS011;21687;48.900;9.188;2024-02-14T03:54:19;9.90;;;5.23;;
35578;SDS011;21687;48.900;9.188;2024-02-14T03:56:46;9.93;;;5.23;;
35578;SDS011;21687;48.900;9.188;2024-02-14T03:59:12;7.13;;;5.13;;
35578;SDS011;21687;48.900;9.188;2024-02-14T04:01:43;9.77;;;5.27;;
35578;SDS011;21687;48.900;9.188;2024-02-14T04:04:10;7.13;;;4.67;;
35578;SDS011;21687;48.900;9.188;2024-02-14T04:06:36;9.27;;;4.97;;
35578;SDS011;21687;48.900;9.188;2024-02-14T04:09:02;9.67;;;5.37;;
35578;SDS011;21687;48.900;9.188;2024-02-14T04:11:29;8.83;;;4.90;;
35578;SDS011;21687;48.900;9.188;2024-02-14T04:13:55;7.40;;;4.67;;
35578;SDS011;21687;48.900;9.188;2024-02-14T04:16:21;15.47;;;4.90;;
35578;SDS011;21687;48.900;9.188;2024-02-14T04:18:47;7.30;;;4.37;;
35578;SDS011;21687;48.900;9.188;2024-02-14T04:21:14;7.63;;;4.77;;
35578;SDS011;21687;48.900;9.188;2024-02-14T04:23:40;7.60;;;4.60;;
35578;SDS011;21687;48.900;9.188;2024-02-14T04:26:06;9.67;;;4.50;;
35578;SDS011;21687;48.900;9.188;2024-02-14T04:28:33;8.67;;;4.90;;
35578;SDS011;21687;48.900;9.188;2024-02-14T04:30:59;10.70;;;5.77;;
35578;SDS011;21687;48.900;9.188;2024-02-14T04:33:25;8.50;;;4.30;;
35578;SDS011;21687;48.900;9.188;2024-02-14T04:35:51;6.80;;;4.47;;
35578;SDS011;21687;48.900;9.188;2024-02-14T04:38:18;6.13;;;3.93;;
35578;SDS011;21687;48.900;9.188;2024-02-14T04:40:44;8.80;;;4.67;;
35578;SDS011;21687;48.900;9.188;2024-02-14T04:43:10;8.73;;;4.43;;
35578;SDS011;21687;48.900;9.188;2024-02-14T04:45:37;10.03;;;5.23;;
35578;SDS011;21687;48.900;9.188;2024-02-14T04:48:03;11.40;;;4.40;;
35578;SDS011;21687;48.900;9.188;2024-02-14T04:50:29;8.90;;;5.07;;
35578;SDS011;21687;48.900;9.188;2024-02-14T04:52:56;7.87;;;4.57;;
35578;SDS011;21687;48.900;9.188;2024-02-14T04:55:22;9.53;;;4.13;;
35578;SDS011;21687;48.900;9.188;2024-02-14T04:57:48;6.90;;;4.10;;
35578;SDS011;21687;48.900;9.188;2024-02-14T05:00:14;7.50;;;4.23;;
35578;SDS011;21687;48.900;9.188;2024-02-14T05:02:41;11.00;;;4.30;;
35578;SDS011;21687;48.900;9.188;2024-02-14T05:05:07;5.33;;;3.60;;
35578;SDS011;21687;48.900;9.188;2024-02-14T05:07:33;5.60;;;3.60;;
35578;SDS011;21687;48.900;9.188;2024-02-14T05:09:59;7.13;;;4.40;;
35578;SDS011;21687;48.900;9.188;2024-02-14T05:12:26;6.17;;;3.30;;
35578;SDS011;21687;48.900;9.188;2024-02-14T05:14:52;8.67;;;3.30;;
35578;SDS011;21687;48.900;9.188;2024-02-14T05:17:18;6.40;;;3.30;;
35578;SDS011;21687;48.900;9.188;2024-02-14T05:19:45;7.27;;;3.13;;
35578;SDS011;21687;48.900;9.188;2024-02-14T05:22:11;4.87;;;2.63;;
35578;SDS011;21687;48.900;9.188;2024-02-14T05:24:37;3.43;;;2.80;;
35578;SDS011;21687;48.900;9.188;2024-02-14T05:27:04;5.63;;;2.77;;
35578;SDS011;21687;48.900;9.188;2024-02-14T05:29:30;5.33;;;3.20;;
35578;SDS011;21687;48.900;9.188;2024-02-14T05:31:56;5.07;;;3.10;;
35578;SDS011;21687;48.900;9.188;2024-02-14T05:34:22;7.10;;;3.57;;
35578;SDS011;21687;48.900;9.188;2024-02-14T05:36:49;7.23;;;3.80;;
35578;SDS011;21687;48.900;9.188;2024-02-14T05:39:15;5.40;;;4.07;;
35578;SDS011;21687;48.900;9.188;2024-02-14T05:41:42;6.80;;;4.63;;
35578;SDS011;21687;48.900;9.188;2024-02-14T05:44:08;10.53;;;4.30;;
35578;SDS011;21687;48.900;9.188;2024-02-14T05:46:34;5.77;;;3.63;;
35578;SDS011;21687;48.900;9.188;2024-02-14T05:49:00;5.60;;;3.40;;
35578;SDS011;21687;48.900;9.188;2024-02-14T05:51:27;5.07;;;3.50;;
35578;SDS011;21687;48.900;9.188;2024-02-14T05:53:53;6.83;;;3.63;;
35578;SDS011;21687;48.900;9.188;2024-02-14T05:56:20;5.90;;;3.63;;
35578;SDS011;21687;48.900;9.188;2024-02-14T05:58:46;6.27;;;4.07;;
35578;SDS011;21687;48.900;9.188;2024-02-14T06:01:12;12.67;;;4.60;;
35578;SDS011;21687;48.900;9.188;2024-02-14T06:03:40;8.57;;;4.17;;
35578;SDS011;21687;48.900;9.188;2024-02-14T06:06:08;8.13;;;4.37;;
35578;SDS011;21687;48.900;9.188;2024-02-14T06:08:34;9.17;;;4.83;;
35578;SDS011;21687;48.900;9.188;2024-02-14T06:11:00;8.83;;;4.80;;
35578;SDS011;21687;48.900;9.188;2024-02-14T06:13:26;10.70;;;5.00;;
35578;SDS011;21687;48.900;9.188;2024-02-14T06:15:52;7.50;;;4.93;;
35578;SDS011;21687;48.900;9.188;2024-02-14T06:18:18;11.33;;;4.97;;
35578;SDS011;21687;48.900;9.188;2024-02-14T06:20:44;5.97;;;4.40;;
35578;SDS011;21687;48.900;9.188;2024-02-14T06:23:11;12.03;;;5.10;;
35578;SDS011;21687;48.900;9.188;2024-02-14T06:25:38;7.03;;;4.30;;
35578;SDS011;21687;48.900;9.188;2024-02-14T06:28:04;10.07;;;5.00;;
35578;SDS011;21687;48.900;9.188;2024-02-14T06:30:30;7.50;;;4.53;;
35578;SDS011;21687;48.900;9.188;2024-02-14T06:32:56;8.47;;;4.93;;
35578;SDS011;21687;48.900;9.188;2024-02-14T06:35:25;7.07;;;4.70;;
35578;SDS011;21687;48.900;9.188;2024-02-14T06:37:51;6.87;;;4.87;;
35578;SDS011;21687;48.900;9.188;2024-02-14T06:40:18;9.00;;;4.67;;
35578;SDS011;21687;48.900;9.188;2024-02-14T06:42:44;9.80;;;5.20;;
35578;SDS011;21687;48.900;9.188;2024-02-14T06:45:10;8.10;;;4.60;;
35578;SDS011;21687;48.900;9.188;2024-02-14T06:47:36;12.20;;;5.27;;
35578;SDS011;21687;48.900;9.188;2024-02-14T06:50:02;5.97;;;4.63;;
35578;SDS011;21687;48.900;9.188;2024-02-14T06:52:29;10.13;;;5.13;;
35578;SDS011;21687;48.900;9.188;2024-02-14T06:54:55;7.87;;;4.80;;
35578;SDS011;21687;48.900;9.188;2024-02-14T06:57:21;7.77;;;5.13;;
35578;SDS011;21687;48.900;9.188;2024-02-14T06:59:47;11.00;;;4.83;;
35578;SDS011;21687;48.900;9.188;2024-02-14T07:02:13;9.13;;;5.13;;
35578;SDS011;21687;48.900;9.188;2024-02-14T07:04:39;12.73;;;5.17;;
35578;SDS011;21687;48.900;9.188;2024-02-14T07:07:06;8.87;;;5.40;;
35578;SDS011;21687;48.900;9.188;2024-02-14T07:09:32;10.57;;;5.07;;
35578;SDS011;21687;48.900;9.188;2024-02-14T07:12:00;8.77;;;4.40;;
35578;SDS011;21687;48.900;9.188;2024-02-14T07:14:27;9.90;;;4.40;;
35578;SDS011;21687;48.900;9.188;2024-02-14T07:16:53;6.27;;;4.40;;
35578;SDS011;21687;48.900;9.188;2024-02-14T07:19:19;11.27;;;5.10;;
35578;SDS011;21687;48.900;9.188;2024-02-14T07:21:45;11.03;;;4.70;;
35578;SDS011;21687;48.900;9.188;2024-02-14T07:24:12;7.10;;;4.80;;
35578;SDS011;21687;48.900;9.188;2024-02-14T07:26:38;8.03;;;4.33;;
35578;SDS011;21687;48.900;9.188;2024-02-14T07:29:06;10.50;;;4.77;;
35578;SDS011;21687;48.900;9.188;2024-02-14T07:31:32;6.57;;;4.57;;
35578;SDS011;21687;48.900;9.188;2024-02-14T07:33:59;8.40;;;4.40;;
35578;SDS011;21687;48.900;9.188;2024-02-14T07:36:28;6.83;;;4.43;;
35578;SDS011;21687;48.900;9.188;2024-02-14T07:38:54;7.20;;;4.00;;
35578;SDS011;21687;48.900;9.188;2024-02-14T07:41:21;9.23;;;4.90;;
35578;SDS011;21687;48.900;9.188;2024-02-14T07:43:47;8.83;;;4.40;;
35578;SDS011;21687;48.900;9.188;2024-02-14T07:46:17;7.20;;;4.83;;
35578;SDS011;21687;48.900;9.188;2024-02-14T07:48:45;5.57;;;3.87;;
35578;SDS011;21687;48.900;9.188;2024-02-14T07:51:11;5.83;;;3.70;;
35578;SDS011;21687;48.900;9.188;2024-02-14T07:53:37;6.20;;;3.40;;
35578;SDS011;21687;48.900;9.188;2024-02-14T07:56:04;6.20;;;3.40;;
35578;SDS011;21687;48.900;9.188;2024-02-14T07:58:30;4.23;;;2.67;;
35578;SDS011;21687;48.900;9.188;2024-02-14T08:00:56;7.97;;;3.00;;
35578;SDS011;21687;48.900;9.188;2024-02-14T08:03:22;5.57;;;2.80;;
35578;SDS011;21687;48.900;9.188;2024-02-14T08:05:49;6.17;;;2.93;;
35578;SDS011;21687;48.900;9.188;2024-02-14T08:08:16;6.13;;;2.80;;
35578;SDS011;21687;48.900;9.188;2024-02-14T08:10:42;5.30;;;2.97;;
35578;SDS011;21687;48.900;9.188;2024-02-14T08:13:08;2.53;;;2.20;;
35578;SDS011;21687;48.900;9.188;2024-02-14T08:15:36;4.10;;;2.47;;
35578;SDS011;21687;48.900;9.188;2024-02-14T08:18:02;2.60;;;2.10;;
35578;SDS011;21687;48.900;9.188;2024-02-14T08:20:28;5.83;;;2.27;;
35578;SDS011;21687;48.900;9.188;2024-02-14T08:22:55;4.67;;;3.20;;
35578;SDS011;21687;48.900;9.188;2024-02-14T08:25:21;9.77;;;3.70;;
35578;SDS011;21687;48.900;9.188;2024-02-14T08:27:47;6.33;;;3.83;;
35578;SDS011;21687;48.900;9.188;2024-02-14T08:30:14;9.17;;;3.60;;
35578;SDS011;21687;48.900;9.188;2024-02-14T08:32:40;8.10;;;4.07;;
35578;SDS011;21687;48.900;9.188;2024-02-14T08:35:06;7.03;;;3.63;;
35578;SDS011;21687;48.900;9.188;2024-02-14T08:37:34;5.83;;;3.03;;
35578;SDS011;21687;48.900;9.188;2024-02-14T08:40:05;8.07;;;3.80;;
35578;SDS011;21687;48.900;9.188;2024-02-14T08:42:33;5.50;;;3.33;;
35578;SDS011;21687;48.900;9.188;2024-02-14T08:45:00;9.90;;;3.77;;
35578;SDS011;21687;48.900;9.188;2024-02-14T08:47:26;9.27;;;3.70;;
35578;SDS011;21687;48.900;9.188;2024-02-14T08:49:52;6.30;;;3.40;;
35578;SDS011;21687;48.900;9.188;2024-02-14T08:52:18;6.90;;;3.40;;
35578;SDS011;21687;48.900;9.188;2024-02-14T08:54:46;5.40;;;3.17;;
35578;SDS011;21687;48.900;9.188;2024-02-14T08:57:12;4.77;;;3.10;;
35578;SDS011;21687;48.900;9.188;2024-02-14T08:59:38;9.33;;;3.67;;
35578;SDS011;21687;48.900;9.188;2024-02-14T09:02:08;6.33;;;2.80;;
35578;SDS011;21687;48.900;9.188;2024-02-14T09:04:34;5.77;;;3.50;;
35578;SDS011;21687;48.900;9.188;2024-02-14T09:07:00;8.93;;;3.70;;
35578;SDS011;21687;48.900;9.188;2024-02-14T09:09:26;7.53;;;3.90;;
35578;SDS011;21687;48.900;9.188;2024-02-14T09:11:53;7.80;;;3.63;;
35578;SDS011;21687;48.900;9.188;2024-02-14T09:14:20;6.63;;;3.50;;
35578;SDS011;21687;48.900;9.188;2024-02-14T09:16:46;6.43;;;3.33;;
35578;SDS011;21687;48.900;9.188;2024-02-14T09:19:12;6.20;;;3.00;;
35578;SDS011;21687;48.900;9.188;2024-02-14T09:21:57;5.03;;;2.90;;
35578;SDS011;21687;48.900;9.188;2024-02-14T09:24:44;5.83;;;2.60;;
35578;SDS011;21687;48.900;9.188;2024-02-14T09:27:31;2.60;;;1.80;;
35578;SDS011;21687;48.900;9.188;2024-02-14T09:30:18;3.80;;;2.57;;
35578;SDS011;21687;48.900;9.188;2024-02-14T09:33:05;4.53;;;2.33;;
35578;SDS011;21687;48.900;9.188;2024-02-14T09:35:51;6.30;;;2.57;;
35578;SDS011;21687;48.900;9.188;2024-02-14T09:38:38;3.40;;;2.27;;
35578;SDS011;21687;48.900;9.188;2024-02-14T09:41:37;4.93;;;2.50;;
35578;SDS011;21687;48.900;9.188;2024-02-14T09:44:27;3.17;;;1.97;;
35578;SDS011;21687;48.900;9.188;2024-02-14T09:47:14;3.33;;;2.00;;
35578;SDS011;21687;48.900;9.188;2024-02-14T09:50:01;2.97;;;1.90;;
35578;SDS011;21687;48.900;9.188;2024-02-14T09:52:48;3.10;;;1.90;;
35578;SDS011;21687;48.900;9.188;2024-02-14T09:55:35;2.47;;;2.10;;
35578;SDS011;21687;48.900;9.188;2024-02-14T09:58:23;4.30;;;2.17;;
35578;SDS011;21687;48.900;9.188;2024-02-14T10:01:12;3.73;;;1.90;;
35578;SDS011;21687;48.900;9.188;2024-02-14T10:03:58;3.83;;;1.90;;
35578;SDS011;21687;48.900;9.188;2024-02-14T10:06:45;2.33;;;1.90;;
35578;SDS011;21687;48.900;9.188;2024-02-14T10:09:39;3.17;;;1.70;;
35578;SDS011;21687;48.900;9.188;2024-02-14T10:12:28;2.60;;;1.80;;
35578;SDS011;21687;48.900;9.188;2024-02-14T10:15:15;4.00;;;1.70;;
35578;SDS011;21687;48.900;9.188;2024-02-14T10:18:02;2.00;;;1.63;;
35578;SDS011;21687;48.900;9.188;2024-02-14T10:20:57;2.80;;;1.60;;
35578;SDS011;21687;48.900;9.188;2024-02-14T10:23:44;2.37;;;1.73;;
35578;SDS011;21687;48.900;9.188;2024-02-14T10:26:32;1.60;;;1.50;;
35578;SDS011;21687;48.900;9.188;2024-02-14T10:29:19;2.07;;;1.50;;
35578;SDS011;21687;48.900;9.188;2024-02-14T10:32:06;4.63;;;1.60;;
35578;SDS011;21687;48.900;9.188;2024-02-14T10:34:52;2.83;;;1.70;;
35578;SDS011;21687;48.900;9.188;2024-02-14T10:37:39;2.30;;;1.67;;
35578;SDS011;21687;48.900;9.188;2024-02-14T10:40:27;3.67;;;1.60;;
35578;SDS011;21687;48.900;9.188;2024-02-14T10:43:14;3.83;;;1.70;;
35578;SDS011;21687;48.900;9.188;2024-02-14T10:46:02;2.43;;;1.43;;
35578;SDS011;21687;48.900;9.188;2024-02-14T10:48:53;3.13;;;2.10;;
35578;SDS011;21687;48.900;9.188;2024-02-14T10:51:48;3.23;;;1.70;;
35578;SDS011;21687;48.900;9.188;2024-02-14T10:54:36;2.53;;;1.80;;
35578;SDS011;21687;48.900;9.188;2024-02-14T10:57:26;3.63;;;1.70;;
35578;SDS011;21687;48.900;9.188;2024-02-14T11:00:14;4.67;;;1.63;;
35578;SDS011;21687;48.900;9.188;2024-02-14T11:03:03;2.80;;;1.50;;
35578;SDS011;21687;48.900;9.188;2024-02-14T11:05:53;2.33;;;1.70;;
35578;SDS011;21687;48.900;9.188;2024-02-14T11:08:55;2.57;;;1.60;;
35578;SDS011;21687;48.900;9.188;2024-02-14T11:11:43;3.27;;;2.00;;
35578;SDS011;21687;48.900;9.188;2024-02-14T11:14:33;2.73;;;1.80;;
35578;SDS011;21687;48.900;9.188;2024-02-14T11:17:20;2.77;;;1.93;;
35578;SDS011;21687;48.900;9.188;2024-02-14T11:20:15;2.80;;;1.60;;
35578;SDS011;21687;48.900;9.188;2024-02-14T11:23:03;3.93;;;1.50;;
35578;SDS011;21687;48.900;9.188;2024-02-14T11:25:58;3.00;;;1.57;;
35578;SDS011;21687;48.900;9.188;2024-02-14T11:28:59;3.67;;;1.47;;
35578;SDS011;21687;48.900;9.188;2024-02-14T11:31:47;3.97;;;2.03;;
35578;SDS011;21687;48.900;9.188;2024-02-14T11:34:34;4.03;;;1.70;;
35578;SDS011;21687;48.900;9.188;2024-02-14T11:37:20;5.23;;;1.80;;
35578;SDS011;21687;48.900;9.188;2024-02-14T11:40:13;1.83;;;1.63;;
35578;SDS011;21687;48.900;9.188;2024-02-14T11:42:59;3.10;;;1.80;;
35578;SDS011;21687;48.900;9.188;2024-02-14T11:45:46;3.10;;;1.87;;
35578;SDS011;21687;48.900;9.188;2024-02-14T11:48:37;1.83;;;1.60;;
35578;SDS011;21687;48.900;9.188;2024-02-14T11:51:24;2.20;;;1.70;;
35578;SDS011;21687;48.900;9.188;2024-02-14T11:54:11;4.13;;;1.87;;
35578;SDS011;21687;48.900;9.188;2024-02-14T11:56:58;3.13;;;1.60;;
35578;SDS011;21687;48.900;9.188;2024-02-14T11:59:45;5.30;;;1.93;;
35578;SDS011;21687;48.900;9.188;2024-02-14T12:02:35;2.93;;;1.80;;
35578;SDS011;21687;48.900;9.188;2024-02-14T12:05:21;2.27;;;1.80;;
35578;SDS011;21687;48.900;9.188;2024-02-14T12:08:09;3.83;;;1.70;;
35578;SDS011;21687;48.900;9.188;2024-02-14T12:10:56;4.57;;;1.73;;
35578;SDS011;21687;48.900;9.188;2024-02-14T12:13:42;6.73;;;2.17;;
35578;SDS011;21687;48.900;9.188;2024-02-14T12:16:34;6.93;;;2.07;;
35578;SDS011;21687;48.900;9.188;2024-02-14T12:19:22;3.30;;;2.40;;
35578;SDS011;21687;48.900;9.188;2024-02-14T12:22:09;2.63;;;1.80;;
35578;SDS011;21687;48.900;9.188;2024-02-14T12:25:03;2.00;;;1.80;;
35578;SDS011;21687;48.900;9.188;2024-02-14T12:27:51;2.37;;;1.80;;
35578;SDS011;21687;48.900;9.188;2024-02-14T12:33:43;2.30;;;1.53;;
35578;SDS011;21687;48.900;9.188;2024-02-14T12:36:31;3.77;;;1.67;;
35578;SDS011;21687;48.900;9.188;2024-02-14T12:39:18;2.97;;;1.80;;
35578;SDS011;21687;48.900;9.188;2024-02-14T12:42:05;2.40;;;2.20;;
35578;SDS011;21687;48.900;9.188;2024-02-14T12:44:54;5.77;;;1.60;;
35578;SDS011;21687;48.900;9.188;2024-02-14T12:47:41;8.03;;;5.77;;
35578;SDS011;21687;48.900;9.188;2024-02-14T12:50:28;5.17;;;3.73;;
35578;SDS011;21687;48.900;9.188;2024-02-14T12:53:16;4.07;;;1.40;;
35578;SDS011;21687;48.900;9.188;2024-02-14T12:56:02;3.73;;;2.80;;
35578;SDS011;21687;48.900;9.188;2024-02-14T12:58:50;1.40;;;1.20;;
35578;SDS011;21687;48.900;9.188;2024-02-14T13:01:36;1.90;;;1.10;;
35578;SDS011;21687;48.900;9.188;2024-02-14T13:04:04;2.50;;;1.30;;
35578;SDS011;21687;48.900;9.188;2024-02-14T13:06:33;6.10;;;3.37;;
35578;SDS011;21687;48.900;9.188;2024-02-14T13:08:59;3.80;;;1.60;;
35578;SDS011;21687;48.900;9.188;2024-02-14T13:11:25;2.53;;;1.67;;
35578;SDS011;21687;48.900;9.188;2024-02-14T13:13:52;1.23;;;1.13;;
35578;SDS011;21687;48.900;9.188;2024-02-14T13:16:18;0.83;;;0.83;;
35578;SDS011;21687;48.900;9.188;2024-02-14T13:18:44;0.60;;;0.60;;
35578;SDS011;21687;48.900;9.188;2024-02-14T13:21:11;1.40;;;0.77;;
35578;SDS011;21687;48.900;9.188;2024-02-14T13:23:37;1.20;;;1.10;;
35578;SDS011;21687;48.900;9.188;2024-02-14T13:26:05;0.97;;;0.80;;
35578;SDS011;21687;48.900;9.188;2024-02-14T13:28:33;2.00;;;1.10;;
35578;SDS011;21687;48.900;9.188;2024-02-14T13:30:59;3.13;;;1.30;;
35578;SDS011;21687;48.900;9.188;2024-02-14T13:33:25;1.37;;;1.07;;
35578;SDS011;21687;48.900;9.188;2024-02-14T13:35:52;4.20;;;1.80;;
35578;SDS011;21687;48.900;9.188;2024-02-14T13:38:18;2.83;;;1.43;;
35578;SDS011;21687;48.900;9.188;2024-02-14T13:40:44;1.60;;;1.13;;
35578;SDS011;21687;48.900;9.188;2024-02-14T13:43:11;1.20;;;1.10;;
35578;SDS011;21687;48.900;9.188;2024-02-14T13:45:41;0.97;;;0.87;;
35578;SDS011;21687;48.900;9.188;2024-02-14T13:48:09;4.10;;;1.97;;
35578;SDS011;21687;48.900;9.188;2024-02-14T13:50:36;1.77;;;1.67;;
35578;SDS011;21687;48.900;9.188;2024-02-14T13:53:03;1.17;;;1.00;;
35578;SDS011;21687;48.900;9.188;2024-02-14T13:55:31;0.90;;;0.87;;
35578;SDS011;21687;48.900;9.188;2024-02-14T13:57:57;1.60;;;1.50;;
35578;SDS011;21687;48.900;9.188;2024-02-14T14:00:24;1.63;;;1.10;;
35578;SDS011;21687;48.900;9.188;2024-02-14T14:02:51;1.33;;;0.93;;
35578;SDS011;21687;48.900;9.188;2024-02-14T14:05:17;3.10;;;1.23;;
35578;SDS011;21687;48.900;9.188;2024-02-14T14:07:45;2.07;;;1.00;;
35578;SDS011;21687;48.900;9.188;2024-02-14T14:10:12;0.80;;;0.80;;
35578;SDS011;21687;48.900;9.188;2024-02-14T14:12:38;1.07;;;0.97;;
35578;SDS011;21687;48.900;9.188;2024-02-14T14:15:05;0.90;;;0.80;;
35578;SDS011;21687;48.900;9.188;2024-02-14T14:17:32;0.90;;;0.90;;
35578;SDS011;21687;48.900;9.188;2024-02-14T14:19:58;1.20;;;1.00;;
35578;SDS011;21687;48.900;9.188;2024-02-14T14:22:25;1.57;;;0.70;;
35578;SDS011;21687;48.900;9.188;2024-02-14T14:24:54;1.13;;;0.87;;
35578;SDS011;21687;48.900;9.188;2024-02-14T14:27:20;2.50;;;0.90;;
35578;SDS011;21687;48.900;9.188;2024-02-14T14:29:47;3.53;;;0.80;;
35578;SDS011;21687;48.900;9.188;2024-02-14T14:32:13;1.30;;;0.90;;
35578;SDS011;21687;48.900;9.188;2024-02-14T14:34:42;1.23;;;0.80;;
35578;SDS011;21687;48.900;9.188;2024-02-14T14:37:08;1.37;;;0.57;;
35578;SDS011;21687;48.900;9.188;2024-02-14T14:39:35;1.30;;;1.03;;
35578;SDS011;21687;48.900;9.188;2024-02-14T14:42:01;1.70;;;1.00;;
35578;SDS011;21687;48.900;9.188;2024-02-14T14:44:28;0.90;;;0.90;;
35578;SDS011;21687;48.900;9.188;2024-02-14T14:46:55;1.43;;;1.00;;
35578;SDS011;21687;48.900;9.188;2024-02-14T14:49:22;2.70;;;1.40;;
35578;SDS011;21687;48.900;9.188;2024-02-14T14:51:48;1.63;;;1.33;;
35578;SDS011;21687;48.900;9.188;2024-02-14T14:54:14;2.03;;;1.50;;
35578;SDS011;21687;48.900;9.188;2024-02-14T14:56:40;1.57;;;1.43;;
35578;SDS011;21687;48.900;9.188;2024-02-14T14:59:07;2.50;;;1.50;;
35578;SDS011;21687;48.900;9.188;2024-02-14T15:01:34;2.40;;;1.60;;
35578;SDS011;21687;48.900;9.188;2024-02-14T15:04:00;1.67;;;1.40;;
35578;SDS011;21687;48.900;9.188;2024-02-14T15:06:27;1.30;;;1.10;;
35578;SDS011;21687;48.900;9.188;2024-02-14T15:08:53;1.60;;;1.20;;
35578;SDS011;21687;48.900;9.188;2024-02-14T15:11:20;1.40;;;1.30;;
35578;SDS011;21687;48.900;9.188;2024-02-14T15:13:47;4.03;;;1.50;;